Terminal Aerodrome Forecast
Issued by NWS

Home | Current Version | Previous Version | Text Only | Print | Product List | Glossary On
Versions: 1 2 3 4 5 6 7 8 9 10 11 12 13 14 15 16 17 18 19 20 21
000
FTUS41 KAKQ 011600 CCA
TAFPHF
TAF COR
KPHF 011629Z 0116/0212 01004KT P6SM -RA OVC020
      TEMPO 0116/0120 2SM -FZRA BR OVC010
     FM012000 03008KT 3SM -RA BR OVC008
     FM020300 24006KT 4SM BR OVC004=

USA.gov is the U.S. government's official web portal to all federal, state and local government web resources and services.